Pays
Station

 

Conditions  météo  pour  Pease Air Force Base/Portsmouth  -  Etats-Unis    Etats-Unis

  
-2 °C
    
 
 

METAR pour Pease Air Force Base/Portsmouth :

KPSM 211856Z 26006KT 10SM CLR M02/M22 A3035 RMK AO2A SLP282 T10161223

 

Voici le bulletin pour Pease Air Force Base/Portsmouth - Etats-Unis.
 
Le bulletin a été fait il y a 11 minutes, à 18:56 UTC .
Le vent soufflait à la vitesse de 3.1 mètres par seconde de Ouest (260°).
 
La température était de -2 °C, avec un point de rosée à -22 °C.
La température ressentie était de -6 °C.
 
La pression atmosphérique était de 1028 hPa.
L'humidité relative était de 19.8%.
 
Le ciel était clair.
 
La visibilité globale était de 16.1 kilomètres.
 

 
 
 

Pays :   A   B   C   D   E   F   G   H   I   J   K   L   M   N   O   P   Q   R   S   T   U   V   W   Y   Z

 

Partenaires :  Info Météo avec Met'info
Météo Marine avec MeteoMarine.net
Infos Site  |  Infos Légales  |  Crédits  |  Confidentialité
Contactez-nous  |  Ajouter aux favoris
© 2013-2020 METAR - Tous droits réservés